Time;durP1;ratioP1;P1;durP2;ratioP2;P2;SDS_P1;SDS_P2;PMS_P1;PMS_P2;Temp;Humidity;BMP_temperature;BMP_pressure;BME280_temperature;BME280_humidity;BME280_pressure;Samples;Min_cycle;Max_cycle;Signal;HPM_P1;HPM_P2
2022/01/11 00:00:35;;;;;;;8.68;7.20;;;;;;;5.94;58.76;99499.56;5091857;28;20030;-50
2022/01/11 00:03:03;;;;;;;12.32;6.55;;;;;;;6.03;57.91;99500.44;5093131;28;20024;-50
2022/01/11 00:05:37;;;;;;;13.07;7.80;;;;;;;6.02;58.22;99506.66;5093114;28;20024;-49
2022/01/11 00:08:03;;;;;;;15.35;6.70;;;;;;;5.94;58.04;99509.16;5093187;28;20070;-50
2022/01/11 00:10:34;;;;;;;13.15;9.23;;;;;;;5.91;58.36;99517.25;5092937;28;20497;-50
2022/01/11 00:13:00;;;;;;;14.70;8.65;;;;;;;5.91;58.53;99504.22;5093010;28;20024;-49
2022/01/11 00:15:27;;;;;;;13.13;7.78;;;;;;;5.89;59.43;99509.59;5092876;28;20058;-50
2022/01/11 00:17:54;;;;;;;13.18;9.00;;;;;;;5.91;58.57;99510.25;5091543;28;20458;-49
2022/01/11 00:20:21;;;;;;;13.07;7.55;;;;;;;5.90;58.06;99515.63;5092799;28;20513;-49
2022/01/11 00:24:27;;;;;;;16.15;7.30;;;;;;;5.75;58.70;99517.94;5092801;28;20032;-50
2022/01/11 00:25:40;;;;;;;12.50;7.47;;;;;;;5.71;58.79;99520.00;5092109;28;20465;-50
2022/01/11 00:28:08;;;;;;;10.50;7.40;;;;;;;5.71;58.88;99517.41;5091175;28;20410;-50
2022/01/11 00:30:37;;;;;;;15.00;8.77;;;;;;;5.64;58.39;99529.38;5092569;28;20051;-50
2022/01/11 00:33:08;;;;;;;12.18;7.75;;;;;;;5.53;59.30;99521.78;5091533;28;20401;-49
2022/01/11 00:35:43;;;;;;;14.07;9.05;;;;;;;5.49;59.54;99525.63;5091309;28;20051;-50
2022/01/11 00:38:16;;;;;;;15.70;7.40;;;;;;;5.53;59.42;99527.81;5092506;28;20024;-50
2022/01/11 00:40:49;;;;;;;14.98;8.35;;;;;;;5.57;59.55;99523.13;5092490;28;20051;-50
2022/01/11 00:43:18;;;;;;;12.48;8.38;;;;;;;5.60;58.82;99528.06;5091100;28;20413;-50
2022/01/11 00:45:44;;;;;;;11.65;8.50;;;;;;;5.63;59.42;99519.13;5092420;28;20394;-49
2022/01/11 00:48:10;;;;;;;15.25;8.38;;;;;;;5.71;59.42;99513.97;5092328;28;20112;-50
2022/01/11 00:50:37;;;;;;;24.30;17.85;;;;;;;5.74;59.43;99524.13;5092187;28;20035;-49
2022/01/11 00:53:07;;;;;;;17.33;10.82;;;;;;;5.73;59.30;99523.28;5092303;28;20477;-50
2022/01/11 00:55:34;;;;;;;18.27;9.05;;;;;;;5.65;58.84;99525.81;5092532;28;20049;-50
2022/01/11 00:58:02;;;;;;;12.43;7.95;;;;;;;5.64;59.52;99534.59;5090900;28;20031;-50
2022/01/11 01:00:29;;;;;;;16.23;7.68;;;;;;;5.72;59.61;99534.69;5090782;28;20035;-49
2022/01/11 01:02:55;;;;;;;13.48;7.60;;;;;;;5.75;58.83;99533.56;5092119;28;20098;-49
2022/01/11 01:05:21;;;;;;;10.23;6.95;;;;;;;5.70;58.91;99530.59;5092030;28;20108;-50
2022/01/11 01:07:48;;;;;;;22.10;12.02;;;;;;;5.75;58.40;99536.16;5092118;28;20031;-49
2022/01/11 01:12:46;;;;;;;19.25;13.57;;;;;;;5.68;58.41;99537.72;5092102;28;20379;-50
2022/01/11 01:15:12;;;;;;;41.17;26.77;;;;;;;5.60;58.14;99541.06;5090626;28;20020;-49
2022/01/11 01:17:38;;;;;;;21.48;12.00;;;;;;;5.53;58.87;99535.63;5090612;28;20027;-51
2022/01/11 01:20:05;;;;;;;15.38;8.45;;;;;;;5.57;58.66;99542.19;5091902;28;20078;-50
2022/01/11 01:22:31;;;;;;;11.32;7.45;;;;;;;5.62;58.52;99549.56;5091916;28;20096;-49
2022/01/11 01:24:57;;;;;;;14.52;8.23;;;;;;;5.56;58.39;99553.56;5091836;28;20024;-49
2022/01/11 01:27:23;;;;;;;9.50;7.55;;;;;;;5.51;59.17;99554.94;5090247;28;20047;-49
2022/01/11 01:29:49;;;;;;;11.85;7.40;;;;;;;5.52;59.37;99546.19;5091743;28;20069;-50
2022/01/11 01:32:14;;;;;;;15.25;8.15;;;;;;;5.63;59.12;99542.56;5091791;28;20025;-50
2022/01/11 01:34:40;;;;;;;10.90;7.53;;;;;;;5.73;59.06;99551.94;5091818;28;20056;-50
2022/01/11 01:37:07;;;;;;;12.05;7.03;;;;;;;5.78;59.17;99552.31;5094075;28;20493;-51
2022/01/11 01:39:34;;;;;;;10.52;7.55;;;;;;;5.78;58.77;99544.50;5095867;28;20036;-49
2022/01/11 01:42:03;;;;;;;17.92;9.82;;;;;;;5.80;58.13;99550.38;5095797;28;20085;-49
2022/01/11 01:44:30;;;;;;;11.80;7.65;;;;;;;5.76;57.67;99546.44;5095822;28;20028;-50
2022/01/11 01:46:56;;;;;;;10.43;6.95;;;;;;;5.71;58.09;99547.84;5094393;28;20035;-49
2022/01/11 01:49:23;;;;;;;11.27;7.00;;;;;;;5.59;57.29;99547.22;5095657;28;20100;-50
2022/01/11 01:51:50;;;;;;;12.45;8.25;;;;;;;5.50;57.82;99548.94;5095680;28;20042;-50
2022/01/11 01:54:16;;;;;;;13.65;7.55;;;;;;;5.55;58.32;99561.50;5095691;28;20024;-50
2022/01/11 01:56:43;;;;;;;10.68;6.40;;;;;;;5.56;57.22;99556.16;5095642;28;20153;-50
2022/01/11 01:59:09;;;;;;;12.32;7.93;;;;;;;5.49;57.70;99549.88;5095555;28;20058;-51
2022/01/11 02:01:43;;;;;;;12.23;7.45;;;;;;;5.36;57.83;99558.03;5094159;28;20105;-49
2022/01/11 02:04:09;;;;;;;14.18;7.57;;;;;;;5.36;58.04;99562.44;5095493;28;20024;-49
2022/01/11 02:06:36;;;;;;;10.27;7.20;;;;;;;5.38;57.80;99565.72;5095409;28;20028;-50
2022/01/11 02:09:03;;;;;;;14.68;7.97;;;;;;;5.35;58.50;99560.78;5095283;28;20073;-49
2022/01/11 02:11:31;;;;;;;14.95;8.02;;;;;;;5.30;58.32;99569.03;5095329;28;20397;-51
2022/01/11 02:13:57;;;;;;;11.25;7.78;;;;;;;5.30;58.32;99565.63;5095226;28;20105;-51
2022/01/11 02:16:23;;;;;;;13.05;7.28;;;;;;;5.46;58.50;99570.22;5095199;28;20453;-51
2022/01/11 02:18:50;;;;;;;14.63;7.32;;;;;;;5.57;57.97;99560.41;5095185;28;20430;-50
2022/01/11 02:21:16;;;;;;;11.60;7.13;;;;;;;5.62;58.70;99564.38;5095153;28;20389;-50
2022/01/11 02:23:42;;;;;;;13.85;8.00;;;;;;;5.56;58.49;99556.16;5095115;28;20029;-50
2022/01/11 02:26:08;;;;;;;12.35;8.70;;;;;;;5.80;58.19;99560.81;5095073;28;20058;-51
2022/01/11 02:28:34;;;;;;;10.32;7.00;;;;;;;6.15;57.52;99569.59;5094738;28;20040;-49
2022/01/11 02:31:04;;;;;;;14.18;8.43;;;;;;;6.40;56.51;99559.41;5093604;28;20032;-50
2022/01/11 02:33:32;;;;;;;9.45;7.32;;;;;;;6.22;55.49;99572.47;5094905;28;20375;-50
2022/01/11 02:36:05;;;;;;;17.27;7.88;;;;;;;6.11;55.95;99573.47;5094781;28;20028;-49
2022/01/11 02:38:31;;;;;;;10.70;7.53;;;;;;;6.02;56.15;99570.94;5093586;28;20405;-49
2022/01/11 02:40:58;;;;;;;11.07;7.65;;;;;;;5.91;55.88;99571.97;5094711;28;20115;-51
2022/01/11 02:43:24;;;;;;;14.35;7.43;;;;;;;5.86;56.06;99569.81;5094710;28;20020;-50
2022/01/11 02:45:50;;;;;;;9.18;7.30;;;;;;;5.74;55.68;99565.78;5094626;28;20028;-48
2022/01/11 02:48:16;;;;;;;14.77;8.00;;;;;;;5.60;56.31;99567.09;5094429;28;20107;-49
2022/01/11 02:50:45;;;;;;;14.15;9.32;;;;;;;5.56;56.32;99569.19;5094446;28;20084;-51
2022/01/11 02:53:11;;;;;;;11.23;7.43;;;;;;;5.59;57.14;99566.28;5094520;28;20027;-52
2022/01/11 02:55:39;;;;;;;12.43;8.07;;;;;;;5.65;56.54;99572.69;5094506;28;20394;-51
2022/01/11 02:58:06;;;;;;;14.70;8.40;;;;;;;5.58;56.91;99569.84;5094464;28;20153;-50
2022/01/11 03:00:32;;;;;;;9.60;6.68;;;;;;;5.50;56.23;99564.56;5094349;28;20076;-50
2022/01/11 03:03:09;;;;;;;13.32;7.53;;;;;;;5.41;56.63;99562.81;5092959;28;20023;-50
2022/01/11 03:05:35;;;;;;;10.00;7.57;;;;;;;5.36;56.58;99562.44;5094313;28;20035;-51
2022/01/11 03:08:01;;;;;;;12.85;8.00;;;;;;;5.31;57.37;99567.25;5094260;28;20027;-51
2022/01/11 03:10:36;;;;;;;13.18;8.23;;;;;;;5.29;57.09;99570.03;5094042;28;20031;-51
2022/01/11 03:13:04;;;;;;;12.60;8.70;;;;;;;5.34;57.21;99569.56;5094188;28;20069;-51
2022/01/11 03:15:30;;;;;;;14.90;8.20;;;;;;;5.29;57.36;99562.22;5092803;28;20031;-50
2022/01/11 03:17:56;;;;;;;16.13;8.70;;;;;;;5.36;57.99;99565.84;5094045;28;20024;-49
2022/01/11 03:20:22;;;;;;;11.70;9.30;;;;;;;5.46;57.93;99557.19;5093992;28;20077;-51
2022/01/11 03:22:47;;;;;;;16.85;8.82;;;;;;;5.50;57.65;99561.13;5093914;28;20028;-49
2022/01/11 03:25:13;;;;;;;15.23;9.27;;;;;;;5.51;57.87;99562.75;5093945;28;20020;-50
2022/01/11 03:27:42;;;;;;;15.82;8.77;;;;;;;5.59;57.42;99570.66;5093666;28;20055;-50
2022/01/11 03:30:09;;;;;;;17.35;8.90;;;;;;;5.60;57.33;99569.72;5093742;28;20021;-50
2022/01/11 03:32:35;;;;;;;17.13;8.90;;;;;;;5.51;56.66;99573.19;5093849;28;20025;-50
2022/01/11 03:35:01;;;;;;;13.48;8.60;;;;;;;5.45;57.25;99576.38;5093718;28;20024;-49
2022/01/11 03:37:27;;;;;;;17.05;8.38;;;;;;;5.45;57.11;99574.56;5093681;28;20111;-49
2022/01/11 03:39:52;;;;;;;14.30;9.23;;;;;;;5.42;57.37;99569.66;5093609;28;20099;-50
2022/01/11 03:42:19;;;;;;;10.68;7.53;;;;;;;5.46;57.60;99568.41;5093568;28;20028;-51
2022/01/11 03:44:45;;;;;;;11.40;8.60;;;;;;;5.51;57.00;99565.38;5093563;28;20039;-49
2022/01/11 03:47:11;;;;;;;12.48;8.50;;;;;;;5.47;57.13;99574.44;5093553;28;20028;-50
2022/01/11 03:49:36;;;;;;;14.75;8.82;;;;;;;5.45;57.48;99571.97;5093379;28;20409;-49
2022/01/11 03:52:03;;;;;;;12.43;8.48;;;;;;;5.52;57.53;99574.84;5092044;28;20552;-50
2022/01/11 03:54:42;;;;;;;11.77;8.93;;;;;;;5.44;57.00;99575.56;5093412;28;20021;-49
2022/01/11 03:57:09;;;;;;;12.45;8.63;;;;;;;5.35;56.43;99577.25;5093319;28;20396;-50
2022/01/11 03:59:35;;;;;;;14.35;9.38;;;;;;;5.26;57.64;99579.88;5092344;28;20031;-50
2022/01/11 04:02:01;;;;;;;11.73;9.00;;;;;;;5.29;57.56;99588.25;5093103;28;20024;-50
2022/01/11 04:04:27;;;;;;;16.58;9.40;;;;;;;5.36;57.41;99585.88;5093196;28;20389;-50
2022/01/11 04:06:52;;;;;;;16.27;9.80;;;;;;;5.36;57.12;99583.25;5093060;28;20024;-50
2022/01/11 04:09:19;;;;;;;13.48;8.10;;;;;;;5.24;56.80;99581.81;5092951;28;20020;-50
2022/01/11 04:11:45;;;;;;;13.85;9.50;;;;;;;5.18;57.75;99584.03;5093025;28;20020;-51
2022/01/11 04:14:11;;;;;;;15.25;9.00;;;;;;;5.21;57.75;99582.91;5092955;28;20016;-49
2022/01/11 04:16:37;;;;;;;13.52;7.88;;;;;;;5.17;57.06;99585.00;5093151;28;20055;-49
2022/01/11 04:19:03;;;;;;;15.70;8.85;;;;;;;5.19;57.92;99579.63;5092878;28;20444;-50
2022/01/11 04:21:28;;;;;;;19.42;8.70;;;;;;;5.25;57.54;99586.03;5092812;28;20059;-51
2022/01/11 04:23:55;;;;;;;16.20;9.20;;;;;;;5.27;57.67;99579.75;5092771;28;20027;-49
2022/01/11 04:26:21;;;;;;;12.40;8.52;;;;;;;5.28;57.38;99589.19;5092536;28;20024;-49
2022/01/11 04:28:47;;;;;;;13.45;8.82;;;;;;;5.26;57.60;99585.91;5092582;28;20028;-50
2022/01/11 04:31:13;;;;;;;15.93;8.63;;;;;;;5.25;57.38;99586.03;5091268;28;20558;-50
2022/01/11 04:33:43;;;;;;;12.45;8.48;;;;;;;5.27;57.53;99587.56;5091298;28;20085;-50
2022/01/11 04:36:10;;;;;;;12.90;8.80;;;;;;;5.30;57.24;99595.06;5092596;28;20111;-49
2022/01/11 04:38:36;;;;;;;14.48;9.70;;;;;;;5.30;57.47;99587.25;5091188;28;20148;-51
2022/01/11 04:41:02;;;;;;;14.25;9.60;;;;;;;5.29;57.88;99595.19;5092446;28;20020;-51
2022/01/11 04:43:30;;;;;;;14.55;9.05;;;;;;;5.32;58.02;99592.31;5091108;28;20024;-49
2022/01/11 04:45:57;;;;;;;18.70;9.13;;;;;;;5.34;57.86;99595.59;5092402;28;20052;-50
2022/01/11 04:48:23;;;;;;;15.35;9.82;;;;;;;5.31;58.26;99601.09;5092286;28;20063;-50
2022/01/11 04:50:49;;;;;;;14.00;9.55;;;;;;;5.33;57.38;99600.00;5092274;28;20056;-49
2022/01/11 04:53:15;;;;;;;15.40;9.15;;;;;;;5.36;57.60;99606.69;5092314;28;20048;-50
2022/01/11 04:55:42;;;;;;;13.18;9.38;;;;;;;5.34;57.31;99606.81;5092221;28;20083;-50
2022/01/11 04:58:08;;;;;;;14.43;9.00;;;;;;;5.36;57.68;99610.09;5092207;28;20375;-49
2022/01/11 05:00:34;;;;;;;16.00;9.13;;;;;;;5.32;57.27;99598.34;5090828;28;20521;-49
2022/01/11 05:03:00;;;;;;;12.07;9.60;;;;;;;5.31;57.33;99608.91;5091092;28;20024;-49
2022/01/11 05:05:29;;;;;;;15.13;10.07;;;;;;;5.27;57.06;99599.72;5092344;28;20051;-51
2022/01/11 05:07:56;;;;;;;17.85;9.93;;;;;;;5.24;57.42;99607.84;5092061;28;20095;-50
2022/01/11 05:10:23;;;;;;;15.55;9.55;;;;;;;5.26;57.30;99611.94;5091721;28;20024;-48
2022/01/11 05:12:49;;;;;;;13.77;8.90;;;;;;;5.24;57.39;99610.44;5090730;28;20225;-49
2022/01/11 05:15:16;;;;;;;12.50;8.82;;;;;;;5.22;57.18;99615.78;5091990;28;20031;-50
2022/01/11 05:17:42;;;;;;;14.13;9.52;;;;;;;5.25;57.36;99628.53;5090621;28;20454;-50
2022/01/11 05:20:09;;;;;;;14.52;9.02;;;;;;;5.18;57.18;99633.47;5091906;28;20482;-48
2022/01/11 05:22:35;;;;;;;14.35;8.60;;;;;;;5.15;57.26;99625.09;5090617;28;20024;-50
2022/01/11 05:25:01;;;;;;;15.95;9.70;;;;;;;5.17;57.39;99626.63;5091830;28;20024;-48
2022/01/11 05:27:27;;;;;;;21.83;14.27;;;;;;;5.11;57.32;99631.56;5091618;28;20044;-48
2022/01/11 05:29:54;;;;;;;13.88;8.68;;;;;;;5.14;57.07;99629.50;5091773;28;20021;-48
2022/01/11 05:32:20;;;;;;;14.60;8.80;;;;;;;5.06;57.01;99639.81;5091843;28;20023;-49
2022/01/11 05:34:46;;;;;;;15.35;9.43;;;;;;;5.00;57.66;99637.75;5091775;28;20028;-50
2022/01/11 05:37:12;;;;;;;12.43;9.20;;;;;;;4.96;57.71;99645.03;5090498;28;20497;-49
2022/01/11 05:39:38;;;;;;;15.20;8.70;;;;;;;4.96;57.73;99637.22;5091732;28;20020;-50
2022/01/11 05:42:08;;;;;;;17.42;10.13;;;;;;;4.91;57.94;99636.84;5091689;28;20405;-49
2022/01/11 05:44:35;;;;;;;19.60;9.43;;;;;;;4.87;58.33;99637.22;5091724;28;20028;-49
2022/01/11 05:47:02;;;;;;;14.38;9.00;;;;;;;4.83;58.03;99636.72;5091668;28;20020;-49
2022/01/11 05:49:28;;;;;;;16.73;9.05;;;;;;;4.87;58.24;99648.47;5091864;28;20366;-49
2022/01/11 05:51:56;;;;;;;15.07;9.30;;;;;;;4.89;58.09;99643.13;5091607;28;20545;-50
2022/01/11 05:54:22;;;;;;;19.02;9.65;;;;;;;4.93;57.88;99653.13;5091615;28;20043;-48
2022/01/11 05:56:47;;;;;;;13.90;9.60;;;;;;;4.89;58.34;99645.72;5091571;28;20229;-49
2022/01/11 05:59:13;;;;;;;21.52;10.18;;;;;;;4.93;58.10;99647.06;5091573;28;20028;-48
2022/01/11 06:01:39;;;;;;;13.27;9.82;;;;;;;4.95;57.75;99653.81;5091449;28;20385;-50
2022/01/11 06:04:05;;;;;;;13.75;9.20;;;;;;;4.89;57.69;99656.13;5091550;28;20027;-49
2022/01/11 06:06:30;;;;;;;20.05;9.25;;;;;;;4.85;57.83;99660.81;5091787;28;20085;-49
2022/01/11 06:08:56;;;;;;;16.88;10.60;;;;;;;4.88;58.27;99655.31;5091365;28;20508;-49
2022/01/11 06:11:22;;;;;;;16.38;9.80;;;;;;;4.99;58.07;99669.97;5091441;28;20024;-48
2022/01/11 06:13:51;;;;;;;16.02;9.32;;;;;;;5.07;57.97;99671.84;5091432;28;20554;-48
2022/01/11 06:16:17;;;;;;;19.02;10.13;;;;;;;5.15;58.10;99667.59;5091409;28;20099;-49
2022/01/11 06:18:45;;;;;;;13.65;9.13;;;;;;;5.20;57.63;99669.75;5090053;28;20058;-49
2022/01/11 06:21:11;;;;;;;14.45;10.05;;;;;;;5.31;58.01;99674.81;5091358;28;20051;-49
2022/01/11 06:23:37;;;;;;;14.07;9.95;;;;;;;5.43;57.43;99678.03;5094223;28;20052;-50
2022/01/11 06:26:03;;;;;;;14.77;10.43;;;;;;;5.49;57.42;99679.25;5093717;28;20129;-49
2022/01/11 06:28:28;;;;;;;24.08;10.65;;;;;;;5.50;57.58;99683.50;5094795;28;20115;-49
2022/01/11 06:30:54;;;;;;;15.82;9.85;;;;;;;5.49;57.52;99674.84;5094967;28;20024;-49
2022/01/11 06:33:20;;;;;;;17.52;10.27;;;;;;;5.47;56.91;99686.38;5094920;28;20020;-50
2022/01/11 06:35:46;;;;;;;20.02;10.07;;;;;;;5.48;56.64;99682.81;5094877;28;20020;-48
2022/01/11 06:38:12;;;;;;;15.25;10.35;;;;;;;5.48;56.79;99681.03;5094828;28;20420;-49
2022/01/11 06:40:38;;;;;;;16.73;10.85;;;;;;;5.52;57.51;99685.00;5093416;28;20032;-49
2022/01/11 06:43:04;;;;;;;16.63;9.60;;;;;;;5.53;56.59;99686.66;5094782;28;20017;-49
2022/01/11 06:45:30;;;;;;;23.27;10.57;;;;;;;5.49;56.68;99687.06;5094700;28;20028;-48
2022/01/11 06:47:56;;;;;;;20.20;11.02;;;;;;;5.39;57.36;99687.94;5093315;28;20039;-49
2022/01/11 06:50:22;;;;;;;25.20;10.70;;;;;;;5.33;57.33;99688.50;5093216;28;20028;-48
2022/01/11 06:52:48;;;;;;;22.95;11.50;;;;;;;5.27;57.45;99683.84;5094548;28;20024;-49
2022/01/11 06:55:14;;;;;;;16.92;10.50;;;;;;;5.25;56.91;99684.94;5094454;28;20024;-48
2022/01/11 06:57:40;;;;;;;17.88;9.32;;;;;;;5.14;56.95;99688.53;5094418;28;20024;-49
2022/01/11 07:00:08;;;;;;;19.00;10.80;;;;;;;5.03;57.33;99684.31;5094409;28;20498;-48
2022/01/11 07:02:34;;;;;;;15.52;10.43;;;;;;;4.90;57.23;99691.59;5094336;28;20020;-49
2022/01/11 07:05:00;;;;;;;15.35;11.25;;;;;;;4.79;57.91;99689.97;5094315;28;20019;-50
2022/01/11 07:07:26;;;;;;;16.67;10.38;;;;;;;4.72;58.02;99688.88;5094301;28;20481;-48
2022/01/11 07:09:51;;;;;;;16.52;10.15;;;;;;;4.75;58.31;99701.59;5094089;28;20145;-48
2022/01/11 07:12:17;;;;;;;16.38;9.95;;;;;;;4.78;57.83;99707.31;5094163;28;20027;-49
2022/01/11 07:14:43;;;;;;;21.38;11.23;;;;;;;4.79;58.00;99701.19;5094129;28;20020;-49
2022/01/11 07:17:08;;;;;;;28.63;11.93;;;;;;;4.86;57.99;99708.44;5094030;28;20028;-49
2022/01/11 07:19:35;;;;;;;22.13;10.82;;;;;;;4.92;57.88;99703.50;5094105;28;20087;-48
2022/01/11 07:22:00;;;;;;;20.33;10.52;;;;;;;4.95;57.96;99705.81;5093959;28;20028;-48
2022/01/11 07:24:27;;;;;;;16.20;9.65;;;;;;;5.04;57.67;99704.16;5093949;28;20069;-48
2022/01/11 07:26:53;;;;;;;15.60;9.77;;;;;;;5.13;56.72;99710.28;5093659;28;20044;-48
2022/01/11 07:29:20;;;;;;;17.23;13.57;;;;;;;5.17;57.01;99707.28;5093904;28;20035;-48
2022/01/11 07:31:46;;;;;;;25.73;11.00;;;;;;;5.23;56.71;99710.28;5094008;28;20024;-47
2022/01/11 07:34:12;;;;;;;18.17;11.05;;;;;;;5.21;56.99;99718.22;5093726;28;20375;-48
2022/01/11 07:36:37;;;;;;;17.05;10.75;;;;;;;5.26;56.84;99715.22;5093705;28;20431;-48
2022/01/11 07:39:04;;;;;;;19.60;10.93;;;;;;;5.42;56.78;99720.66;5093684;28;20035;-47
2022/01/11 07:41:30;;;;;;;15.48;10.52;;;;;;;5.37;56.66;99725.44;5093583;28;20039;-47
2022/01/11 07:43:56;;;;;;;15.35;10.45;;;;;;;5.33;56.47;99735.34;5092284;28;20020;-47
2022/01/11 07:46:24;;;;;;;16.13;11.45;;;;;;;5.21;56.95;99726.03;5093478;28;20031;-49
2022/01/11 07:48:51;;;;;;;16.58;11.93;;;;;;;5.17;57.52;99733.31;5093416;28;20024;-49
2022/01/11 07:51:17;;;;;;;17.65;11.48;;;;;;;5.20;57.19;99740.84;5093458;28;20436;-48
2022/01/11 07:53:43;;;;;;;18.38;12.57;;;;;;;5.14;57.33;99744.00;5093377;28;20028;-49
2022/01/11 07:56:08;;;;;;;22.98;11.15;;;;;;;5.17;57.15;99745.50;5093317;28;20081;-47
2022/01/11 07:58:34;;;;;;;15.32;11.07;;;;;;;5.17;57.64;99748.94;5093271;28;20016;-49
2022/01/11 08:01:00;;;;;;;18.65;11.25;;;;;;;5.14;57.41;99750.97;5093264;28;20099;-48
2022/01/11 08:03:26;;;;;;;16.83;12.02;;;;;;;5.16;57.37;99751.66;5093187;28;20077;-49
2022/01/11 08:05:53;;;;;;;18.67;12.13;;;;;;;5.17;57.12;99753.28;5093143;28;20024;-48
2022/01/11 08:08:19;;;;;;;13.70;9.68;;;;;;;5.18;56.86;99750.56;5093089;28;20043;-47
2022/01/11 08:10:45;;;;;;;18.30;10.95;;;;;;;5.11;56.83;99748.66;5093002;28;20028;-48
2022/01/11 08:13:11;;;;;;;15.73;9.82;;;;;;;5.05;56.74;99742.25;5093055;28;20393;-49
2022/01/11 08:15:38;;;;;;;17.23;10.43;;;;;;;5.04;56.92;99750.19;5091700;28;20028;-49
2022/01/11 08:18:05;;;;;;;16.63;10.43;;;;;;;5.02;56.94;99757.28;5092979;28;20063;-49
2022/01/11 08:20:32;;;;;;;18.70;10.25;;;;;;;5.01;56.40;99764.28;5092892;28;20397;-48
2022/01/11 08:22:57;;;;;;;20.08;10.00;;;;;;;5.02;56.99;99752.91;5092851;28;20089;-48
2022/01/11 08:25:24;;;;;;;17.77;9.98;;;;;;;4.99;55.80;99758.41;5092839;28;20482;-48
2022/01/11 08:27:51;;;;;;;21.92;11.02;;;;;;;4.98;56.28;99756.75;5092493;28;20044;-49
2022/01/11 08:30:20;;;;;;;67.40;34.72;;;;;;;5.02;57.21;99755.50;5092471;28;20139;-48
2022/01/11 08:32:46;;;;;;;33.95;23.05;;;;;;;5.06;56.38;99754.28;5092644;28;20067;-50
2022/01/11 08:35:12;;;;;;;34.90;20.52;;;;;;;5.11;57.32;99749.50;5092643;28;20020;-50
2022/01/11 08:37:38;;;;;;;42.78;28.83;;;;;;;5.24;57.10;99746.59;5092509;28;20028;-50
2022/01/11 08:40:05;;;;;;;24.73;13.40;;;;;;;5.28;56.20;99742.75;5092513;28;20024;-51
2022/01/11 08:42:31;;;;;;;19.10;12.00;;;;;;;5.31;56.34;99749.44;5091172;28;20028;-50
2022/01/11 08:45:00;;;;;;;15.70;9.98;;;;;;;5.36;56.50;99750.66;5092047;28;20367;-50
2022/01/11 08:47:30;;;;;;;16.73;10.57;;;;;;;5.39;55.55;99749.56;5092611;28;20060;-50
2022/01/11 08:49:59;;;;;;;19.85;12.02;;;;;;;5.38;55.64;99748.75;5092412;28;20028;-51
2022/01/11 08:52:26;;;;;;;18.08;10.38;;;;;;;5.39;56.22;99753.00;5092249;28;20028;-49
2022/01/11 08:54:52;;;;;;;15.80;9.35;;;;;;;5.38;54.95;99753.94;5092291;28;20047;-51
2022/01/11 08:57:19;;;;;;;17.65;10.40;;;;;;;5.41;55.18;99763.25;5092247;28;20055;-50
2022/01/11 08:59:45;;;;;;;17.90;10.25;;;;;;;5.48;56.05;99753.13;5092229;28;20091;-49
2022/01/11 09:02:12;;;;;;;19.65;11.57;;;;;;;5.59;56.02;99755.53;5092123;28;20555;-51
2022/01/11 09:04:38;;;;;;;16.27;10.18;;;;;;;5.70;55.28;99742.34;5090799;28;20509;-51
2022/01/11 09:07:05;;;;;;;18.55;13.35;;;;;;;5.77;55.16;99748.63;5092092;28;20031;-52
2022/01/11 09:09:32;;;;;;;17.05;10.23;;;;;;;5.79;54.92;99746.72;5091985;28;20111;-50
2022/01/11 09:12:06;;;;;;;16.27;10.63;;;;;;;5.71;54.52;99756.19;5092015;28;20078;-48
2022/01/11 09:14:33;;;;;;;21.52;12.38;;;;;;;5.58;54.34;99757.31;5090743;28;20024;-51
2022/01/11 09:17:02;;;;;;;15.40;10.77;;;;;;;5.52;54.93;99757.91;5091975;28;20016;-51
2022/01/11 09:19:29;;;;;;;18.48;10.48;;;;;;;5.47;55.59;99757.47;5091968;28;20031;-49
2022/01/11 09:21:55;;;;;;;21.25;10.68;;;;;;;5.56;54.63;99771.47;5091911;28;20016;-51
2022/01/11 09:24:21;;;;;;;12.50;9.52;;;;;;;5.53;54.82;99763.91;5091918;28;20058;-51
2022/01/11 09:26:48;;;;;;;16.23;10.15;;;;;;;5.49;54.56;99765.97;5091666;28;20059;-51
2022/01/11 09:29:15;;;;;;;14.55;10.10;;;;;;;5.55;54.29;99775.00;5090572;28;20043;-50
2022/01/11 09:31:41;;;;;;;17.17;10.20;;;;;;;5.55;54.89;99767.19;5090457;28;20016;-50
2022/01/11 09:34:07;;;;;;;15.35;9.15;;;;;;;5.59;54.67;99772.00;5090498;28;20055;-51
2022/01/11 09:36:33;;;;;;;11.85;9.23;;;;;;;5.56;54.74;99766.25;5091737;28;20031;-50
2022/01/11 09:38:59;;;;;;;16.38;9.13;;;;;;;5.51;54.40;99761.44;5091756;28;20024;-51
2022/01/11 09:41:25;;;;;;;25.17;9.75;;;;;;;5.48;55.03;99774.75;5091680;28;20024;-51
2022/01/11 09:43:51;;;;;;;21.15;10.65;;;;;;;5.55;54.81;99781.06;5090419;28;20462;-48
2022/01/11 09:46:17;;;;;;;31.00;12.35;;;;;;;5.56;54.84;99781.88;5090362;28;20016;-50
2022/01/11 09:48:44;;;;;;;13.65;9.73;;;;;;;5.63;55.13;99787.34;5091621;28;20035;-51
2022/01/11 09:51:10;;;;;;;23.88;12.55;;;;;;;5.68;55.81;99779.94;5090376;28;20181;-50
2022/01/11 09:53:36;;;;;;;17.17;11.07;;;;;;;5.77;54.79;99786.88;5090304;28;20537;-50
2022/01/11 09:56:06;;;;;;;20.88;11.40;;;;;;;5.66;54.31;99789.66;5090276;28;20498;-50
2022/01/11 09:58:35;;;;;;;21.73;10.13;;;;;;;5.63;55.14;99788.16;5094511;28;20032;-51
2022/01/11 10:01:02;;;;;;;15.80;11.02;;;;;;;5.66;55.07;99782.66;5095567;28;20385;-50
2022/01/11 10:03:27;;;;;;;19.88;10.15;;;;;;;5.78;55.06;99786.75;5094199;28;20113;-50
2022/01/11 10:05:53;;;;;;;14.88;9.23;;;;;;;5.78;55.08;99796.34;5094116;28;20505;-50
2022/01/11 10:08:28;;;;;;;20.58;10.32;;;;;;;5.78;54.41;99794.56;5094080;28;20405;-50
2022/01/11 10:10:57;;;;;;;15.82;10.50;;;;;;;5.74;54.51;99803.63;5095385;28;20031;-49
2022/01/11 10:13:32;;;;;;;13.93;10.60;;;;;;;5.75;54.41;99807.03;5094027;28;20024;-50
2022/01/11 10:16:20;;;;;;;24.58;10.75;;;;;;;5.84;54.61;99810.59;5093978;28;20056;-51
2022/01/11 10:18:46;;;;;;;18.75;10.75;;;;;;;5.87;54.62;99795.47;5094003;28;20035;-51
2022/01/11 10:21:40;;;;;;;18.85;10.30;;;;;;;5.92;54.83;99803.69;5093875;28;20053;-51
2022/01/11 10:24:33;;;;;;;20.88;11.18;;;;;;;5.88;54.81;99802.34;5093891;28;20563;-51
2022/01/11 10:27:03;;;;;;;15.77;10.10;;;;;;;5.79;54.72;99801.41;5093513;28;20532;-52
2022/01/11 10:29:35;;;;;;;19.58;11.30;;;;;;;5.90;55.04;99805.63;5094969;28;20111;-49
2022/01/11 10:32:10;;;;;;;19.42;11.85;;;;;;;5.99;53.48;99793.53;5093672;28;20032;-51
2022/01/11 10:34:36;;;;;;;16.23;10.30;;;;;;;6.04;53.45;99793.94;5094855;28;20035;-50
2022/01/11 10:37:04;;;;;;;15.43;11.02;;;;;;;6.11;54.09;99799.41;5093503;28;20028;-50
2022/01/11 10:39:37;;;;;;;23.80;11.25;;;;;;;6.12;54.15;99799.25;5093501;28;20024;-50
2022/01/11 10:42:04;;;;;;;17.02;10.07;;;;;;;6.09;53.78;99794.31;5093480;28;20093;-50
2022/01/11 10:44:52;;;;;;;18.23;11.70;;;;;;;6.18;53.59;99780.44;5094746;28;20028;-50
2022/01/11 10:47:28;;;;;;;18.75;10.48;;;;;;;6.26;53.40;99787.53;5094641;28;20019;-52
2022/01/11 10:49:59;;;;;;;16.60;10.55;;;;;;;6.19;52.82;99792.50;5094649;28;20028;-51
2022/01/11 10:52:28;;;;;;;24.50;10.93;;;;;;;6.13;53.32;99787.84;5093254;28;20588;-51
2022/01/11 10:54:54;;;;;;;14.40;10.43;;;;;;;6.05;53.20;99787.75;5094609;28;20012;-49
2022/01/11 10:57:27;;;;;;;14.50;11.77;;;;;;;5.98;53.21;99792.72;5093135;28;20047;-50
2022/01/11 11:00:16;;;;;;;14.73;10.73;;;;;;;5.71;53.16;99797.84;5094467;28;20497;-50
2022/01/11 11:02:43;;;;;;;17.48;11.10;;;;;;;5.62;54.03;99799.53;5094433;28;20086;-51
2022/01/11 11:05:30;;;;;;;17.27;10.77;;;;;;;5.67;54.12;99797.31;5094349;28;20458;-50
2022/01/11 11:07:59;;;;;;;16.77;11.30;;;;;;;5.82;54.31;99807.31;5093958;28;20111;-51
2022/01/11 11:10:36;;;;;;;17.52;10.50;;;;;;;5.89;53.46;99803.97;5094123;28;20023;-50
2022/01/11 11:13:04;;;;;;;17.40;10.88;;;;;;;5.91;53.74;99804.66;5094264;28;20066;-50
2022/01/11 11:15:32;;;;;;;17.73;10.77;;;;;;;5.90;53.26;99800.41;5092845;28;20050;-50
2022/01/11 11:17:58;;;;;;;16.98;10.50;;;;;;;5.92;53.20;99806.31;5094120;28;20066;-50
2022/01/11 11:20:24;;;;;;;18.20;11.80;;;;;;;5.92;54.14;99808.09;5094116;28;20024;-51
2022/01/11 11:22:51;;;;;;;17.45;10.35;;;;;;;5.83;53.95;99798.50;5094052;28;20569;-49
2022/01/11 11:25:17;;;;;;;23.63;11.52;;;;;;;5.65;54.63;99801.84;5092602;28;20024;-51
2022/01/11 11:27:43;;;;;;;15.80;10.75;;;;;;;5.82;55.35;99800.31;5092437;28;20505;-51
2022/01/11 11:30:09;;;;;;;17.60;10.70;;;;;;;6.14;54.46;99814.75;5093761;28;20024;-50
2022/01/11 11:32:35;;;;;;;19.77;11.32;;;;;;;6.18;53.69;99808.31;5093847;28;20509;-50